Viroqua, WI

1:01 AM CDT on April 21, 2015 (GMT -0500)
Faith Farms Viroqua | | Change Station
CLOSE
Current Station
Personal Weather Station
Location: Viroqua, WI
Elevation: 1217 ft
Nearby Weather Stations

Elev 1217 ft 43.61 °N, 90.98 °W | Updated 26 seconds ago

Overcast
Overcast
37.1 °F
Feels Like 33 °F
N
5.0
Wind Variable Wind from NE
Gusts 9.0 mph

Today
High -- | Low -- °F
--% Chance of Precip.
Yesterday
High -- | Low -- °F
Precip. -- in
6:11 AM 7:53 PM
Waxing Crescent, 8% visible
Pressure 29.52 in
Visibility 10.0 miles
Clouds Scattered Clouds 2300 ft
Overcast 3000 ft
Windchill 33 °F
Dew Point 32 °F
Humidity 81%
Rainfall 0.00 in
Snow Depth Not available.
UV 0 out of 12
Pollen 10.40 out of 12
Air Quality Not available.
Flu Activity Local Activity
METAR KY51 210535Z AUTO 27011G21KT 10SM SCT023 OVC030 03/00 A2952 RMK AO1 T00270000

More Conditions Fewer Conditions

Pressure 29.52 in
Visibility 10.0 miles
Clouds Scattered Clouds 2300 ft
Overcast 3000 ft
Windchill 33 °F
Dew Point 32 °F
Humidity 81%
Rainfall 0.00 in
Snow Depth Not available.
UV 0 out of 12
Pollen 10.40 out of 12
Air Quality Not available.
Flu Activity Local Activity
METAR KY51 210535Z AUTO 27011G21KT 10SM SCT023 OVC030 03/00 A2952 RMK AO1 T00270000

More Conditions Fewer Conditions

10-Day Weather Forecast

Almanac

Astronomy

Apr. 21, 2015 Rise Set
Actual Time
Civil Twilight
Nautical Twilight
Astronomical Twilight
Moon
Length of Visible Light
Length of Day
Tomorrow will be .
, % of the Moon is Illuminated

Today's Extremes

State Highs State Lows

Community

WunderPhotos

Upload Photos

1,815,318 photos uploaded!

WunderBlogs® & News

Nearby

Air Quality

  Air Quality AQ Index Pollutant
Not available.

Snow Depth

Station Depth Elevation

Earthquake Activity

City Distance Mag. Time & Date
Minimum magnitude displayed is 2.5.

Coastal Water Temperatures

Place Temperature

Stations

Nearby Weather Stations

Station Location Temp. Windchill Dew Point Humidity Wind Precip. Elev Updated Type